Maxwell, IA

8:49 PM CDT on September 15, 2014 (GMT -0500)
Newton Municipal | Change Station
CLOSE
Current Station
Airport
Location: Newton,
Elevation: 951 ft
Nearby Weather Stations

Elev 951 ft 41.67 °N, 93.02 °W | Updated 14 minutes ago

Clear
Clear
50 °F
Feels Like 50 °F
N
6
Wind Variable Wind from NNW

Today
High -- | Low -- °F
--% Chance of Precip.
Yesterday
High -- | Low -- °F
Precip. -- in
6:53 AM 7:23 PM
Waning Gibbous, 50% visible
Pressure 30.23 in
Visibility 10.0 miles
Clouds Clear
Dew Point 46 °F
Humidity 87%
Rainfall 0.08 in
Snow Depth Not available.
UV 0 out of 12
Pollen 4.10 out of 12
Air Quality Not available.
Flu Activity Not available.
METAR KTNU 160135Z AUTO 33005KT 10SM CLR 10/08 A3023 RMK AO2

More Conditions Fewer Conditions

Pressure 30.23 in
Visibility 10.0 miles
Clouds Clear
Dew Point 46 °F
Humidity 87%
Rainfall 0.08 in
Snow Depth Not available.
UV 0 out of 12
Pollen 4.10 out of 12
Air Quality Not available.
Flu Activity Not available.
METAR KTNU 160135Z AUTO 33005KT 10SM CLR 10/08 A3023 RMK AO2

More Conditions Fewer Conditions

10-Day Weather Forecast

Almanac

Astronomy

Sep. 15, 2014 Rise Set
Actual Time 6:53 AM CDT 7:23 PM CDT
Civil Twilight 6:25 AM CDT 7:50 PM CDT
Nautical Twilight 5:52 AM CDT 8:23 PM CDT
Astronomical Twilight 5:18 AM CDT 8:57 PM CDT
Moon No Moon Rise 1:59 PM CDT (9/15)
Length of Visible Light 13h 25m
Length of Day
12h 29m
Tomorrow will be 2m 47s shorter.
Waning Gibbous, 50% of the Moon is Illuminated
Today
Waning Gibbous
Sep 15
Last Quarter
Sep 24
New
Oct 1
First Quarter
Oct 8
Full

Today's Extremes

State Highs State Lows

Community

WunderPhotos

Upload Photos

1,753,643 photos uploaded!

WunderBlogs® & News

Nearby

Snow Depth

Station Depth Elevation
No new snow has been reported.

Earthquake Activity

City Distance Mag. Time & Date
No recent earthquake activity has been reported nearby.
Minimum magnitude displayed is 2.5.

Coastal Water Temperatures

Place Temperature
No Stations Reporting

Nearby Weather Stations